Laukaa, Finland
Kieli:  Suomi
CurCond
Päivitetty17/10/2021 09:45 
 

Lähistön Lentoasemien Säätiloja:

 

EFJY - Jyvaskyla (mil/C,) Finland
Etäisyys Sääasemalta: PKo 21km
Päivitetty: 17/10/2021 09:20
Puolipilvistä
Puolipilvistä
 Tuulen suunta L
Tuuli: L 26 km/h
Lämpötila: 3°C
Tuulen purevuus: -2°C
Kastepiste: -2°C
Ilmankosteus: 70%
Ilmanpaine: 995 hPa
Pilvisyys: Puolipilvistä
Näkyvyys: 10 km
Pilvisyystiedot: Puolipilvistä 732 m
2021/10/17 06:20 EFJY 170620Z AUTO 27014KT 240V310 9999 SCT024 03/M02 Q0995
EFHA - Halli (fin-Afb), Finland
Etäisyys Sääasemalta: Lo 56km
Päivitetty: 17/10/2021 09:20
Enimmäkseen pilvistä
Enimmäkseen pilvistä
 Tuulen suunta L
Tuuli: L 30 km/h
Lämpötila: 2°C
Tuulen purevuus: -3°C
Kastepiste: -1°C
Ilmankosteus: 81%
Ilmanpaine: 997 hPa
Pilvisyys: Enimmäkseen pilvistä
Näkyvyys: 10 km
Pilvisyystiedot: Enimmäkseen pilvistä 762 m
2021/10/17 06:20 EFHA 170620Z AUTO 27016KT 9999 BKN025 02/M01 Q0997
EFMI - Mikkeli, Finland
Etäisyys Sääasemalta: IKa 105km
Päivitetty: 17/10/2021 09:20
Pilvistä
Pilvistä
 Tuulen suunta L
Tuuli: L 31 km/h
Lämpötila: 4°C
Tuulen purevuus: -2°C
Kastepiste: -2°C
Ilmankosteus: 65%
Ilmanpaine: 996 hPa
Pilvisyys: Pilvistä
Näkyvyys: 10 km
Pilvisyystiedot: Pilvistä 853 m
2021/10/17 06:20 EFMI 170620Z AUTO 26017KT 9999 OVC028 04/M02 Q0996
 
EFTP - Tampere/Pirkkala, Finland
Etäisyys Sääasemalta: Lo 135km
Päivitetty: 17/10/2021 09:20
Selkeätä
Selkeätä
 Tuulen suunta L
Tuuli: L 20 km/h
Lämpötila: 3°C
Tuulen purevuus: -2°C
Kastepiste: 0°C
Ilmankosteus: 81%
Ilmanpaine: 1000 hPa
Yhteenveto: Selkeätä
Näkyvyys: Enemmän Kuin 10 km
2021/10/17 06:20 EFTP 170620Z AUTO 26011KT CAVOK 03/M00 Q1000
EFKU - Kuopio (mil/Civ), Finland
Etäisyys Sääasemalta: Ko 146km
Päivitetty: 17/10/2021 09:20
Heikkoa sadetta, Kuurottaisia sateita, Pilvistä
Heikkoa sadetta, Kuurottaisia sateita, Pilvistä
 Tuulen suunta L
Tuuli: L 30 km/h
Lämpötila: 3°C
Tuulen purevuus: -3°C
Kastepiste: 1°C
Ilmankosteus: 87%
Ilmanpaine: 990 hPa
Yhteenveto: Heikkoa sadetta, Kuurottaisia sateita
Pilvisyys: Pilvistä
Näkyvyys: 10 km
Pilvisyystiedot: Pilvistä 305 m
2021/10/17 06:20 EFKU 170620Z AUTO 26016KT 9999 -SHRA OVC010 03/01 Q0990
EFSI - Seinajoki-Ilmajo, Finland
Etäisyys Sääasemalta: LLu 149km
Päivitetty: 17/10/2021 09:20
Joitain Pilviä
Joitain Pilviä
 Tuulen suunta L
Tuuli: L 17 km/h
Lämpötila: 2°C
Tuulen purevuus: -2°C
Kastepiste: -1°C
Ilmankosteus: 81%
Ilmanpaine: 997 hPa
Pilvisyys: Joitain Pilviä
Näkyvyys: 10 km
Pilvisyystiedot: Joitain Pilviä 853 m
2021/10/17 06:20 EFSI 170620Z AUTO 26009KT 230V290 9999 FEW028 02/M01 Q0997